Darstellungsparameter: Aktuell verwendete Einstellungen:
Skalierung der Graphiken ... ?
xyx+y,   Skalierungsfaktor:      Skalierung: Modus: x, Faktor: 1
Darstellungszeitraum ... ?
Vom - - bis: - -   Zeitraum: 22.11.2019 - 22.11.2019
Min/Max/Avg-Anzeige ... ?
Zeige MMA aktuell
Zeige MMA Monat
Zeige MMA alles
Zeige --A aktuell
Zeige --A Monat
Zeige --A alles
Keine MMA-Anzeige
MMA:
Keine MMA-Graphiken
MMA-Basis: 22.11.2019 - 22.11.2019
Quicknavigation für Darstellung... ?
Tage:      1T, 2T, 3T, 5T -1T -2T -3T -5T +1T +2T +3T +5T
Wochen: 1W, 2W, 3W -1W -2W -3W +1W +2W +3W
Monate: 1M, 3M, 6M -1M -3M -6M +1M +3M +6M
Jahre:    1J, 3J, 5J, 10J -1J -3J -5J -10J +1J +3J +5J +10J
Nutze für die Darstellung ... ?
Originaldaten oder Mittelwerte auf ...
Stundenbasis Tagesbasis Wochenbasis
Monatsbasis Jahresbasis      Datenbasis: Original-Daten
Darstellen als:
Statistik (Auto) Statistik J:M      Darstellung:
Zur Graphik,    zurück zur Übersicht aller Sensoren.
 
Tabellarische Datenbersicht: ?
 
Sensor: Nr:Datum:Temp:Feuchte:Taupunkt:
Aussen-T/F 1 22-11-2019 00:00:00 2.2 C 97 % 1.77 C
2 22-11-2019 00:05:00 2.3 C 97 % 1.87 C
3 22-11-2019 00:10:00 2.3 C 97 % 1.87 C
4 22-11-2019 00:15:00 2.3 C 97 % 1.87 C
5 22-11-2019 00:20:00 2.3 C 97 % 1.87 C
6 22-11-2019 00:25:00 2.3 C 97 % 1.87 C
7 22-11-2019 00:30:00 2.3 C 97 % 1.87 C
8 22-11-2019 00:35:00 2.3 C 97 % 1.87 C
9 22-11-2019 00:40:00 2.2 C 97 % 1.77 C
10 22-11-2019 00:45:00 2.2 C 97 % 1.77 C
11 22-11-2019 00:50:00 2.1 C 97 % 1.67 C
12 22-11-2019 00:55:00 2.1 C 97 % 1.67 C
13 22-11-2019 01:00:00 2.1 C 97 % 1.67 C
14 22-11-2019 01:05:00 2.1 C 97 % 1.67 C
15 22-11-2019 01:10:00 2.1 C 97 % 1.67 C
16 22-11-2019 01:15:00 2.1 C 97 % 1.67 C
17 22-11-2019 01:20:00 2.1 C 97 % 1.67 C
18 22-11-2019 01:25:00 2.1 C 97 % 1.67 C
19 22-11-2019 01:30:00 2 C 97 % 1.58 C
20 22-11-2019 01:35:00 2 C 97 % 1.58 C
21 22-11-2019 01:40:00 1.9 C 97 % 1.48 C
22 22-11-2019 01:45:00 1.9 C 97 % 1.48 C
23 22-11-2019 01:50:00 1.8 C 97 % 1.38 C
24 22-11-2019 01:55:00 1.8 C 97 % 1.38 C
25 22-11-2019 02:00:00 1.8 C 97 % 1.38 C
Sensor: Nr:Datum:Temp:Feuchte:Taupunkt:
Aussen-T/F 26 22-11-2019 02:05:00 1.7 C 97 % 1.28 C
27 22-11-2019 02:10:00 1.5 C 97 % 1.08 C
28 22-11-2019 02:15:00 1.3 C 96 % 0.73 C
29 22-11-2019 02:20:00 1.4 C 97 % 0.98 C
30 22-11-2019 02:25:00 1.5 C 97 % 1.08 C
31 22-11-2019 02:30:00 1.6 C 97 % 1.18 C
32 22-11-2019 02:35:00 1.6 C 97 % 1.18 C
33 22-11-2019 02:40:00 1.7 C 97 % 1.28 C
34 22-11-2019 02:45:00 1.7 C 97 % 1.28 C
35 22-11-2019 02:50:00 1.7 C 97 % 1.28 C
36 22-11-2019 02:55:00 1.7 C 97 % 1.28 C
37 22-11-2019 03:00:00 1.6 C 97 % 1.18 C
38 22-11-2019 03:05:00 1.6 C 97 % 1.18 C
39 22-11-2019 03:10:00 1.7 C 97 % 1.28 C
40 22-11-2019 03:15:00 1.7 C 97 % 1.28 C
41 22-11-2019 03:20:00 1.7 C 97 % 1.28 C
42 22-11-2019 03:25:00 1.7 C 97 % 1.28 C
43 22-11-2019 03:30:00 1.8 C 97 % 1.38 C
44 22-11-2019 03:35:00 1.8 C 97 % 1.38 C
45 22-11-2019 03:40:00 1.7 C 97 % 1.28 C
46 22-11-2019 03:45:00 1.7 C 97 % 1.28 C
47 22-11-2019 03:50:00 1.8 C 97 % 1.38 C
48 22-11-2019 03:55:00 1.9 C 97 % 1.48 C
49 22-11-2019 04:00:00 1.9 C 97 % 1.48 C
50 22-11-2019 04:05:00 1.9 C 97 % 1.48 C
Sensor: Nr:Datum:Temp:Feuchte:Taupunkt:
Aussen-T/F 51 22-11-2019 04:10:00 2 C 97 % 1.58 C
52 22-11-2019 04:15:00 2.1 C 97 % 1.67 C
53 22-11-2019 04:20:00 2.1 C 97 % 1.67 C
54 22-11-2019 04:25:00 2.1 C 97 % 1.67 C
55 22-11-2019 04:30:00 2.1 C 97 % 1.67 C
56 22-11-2019 04:35:00 2.2 C 97 % 1.77 C
57 22-11-2019 04:40:00 2.3 C 97 % 1.87 C
58 22-11-2019 04:45:00 2.3 C 97 % 1.87 C
59 22-11-2019 04:50:00 2.2 C 97 % 1.77 C
60 22-11-2019 04:55:00 2.2 C 97 % 1.77 C
61 22-11-2019 05:00:00 2.2 C 97 % 1.77 C
62 22-11-2019 05:05:00 2.3 C 97 % 1.87 C
63 22-11-2019 05:10:00 2.3 C 97 % 1.87 C
64 22-11-2019 05:15:00 2.4 C 97 % 1.97 C
65 22-11-2019 05:20:00 2.5 C 98 % 2.22 C
66 22-11-2019 05:25:00 2.6 C 97 % 2.17 C
67 22-11-2019 05:30:00 2.8 C 97 % 2.37 C
68 22-11-2019 05:35:00 2.8 C 98 % 2.52 C
69 22-11-2019 05:40:00 2.9 C 98 % 2.62 C
70 22-11-2019 05:45:00 3 C 98 % 2.72 C
71 22-11-2019 05:50:00 3.2 C 98 % 2.92 C
72 22-11-2019 05:55:00 3.3 C 98 % 3.01 C
73 22-11-2019 06:00:00 3.3 C 98 % 3.01 C
74 22-11-2019 06:05:00 3.4 C 98 % 3.11 C
75 22-11-2019 06:10:00 3.6 C 98 % 3.31 C
Sensor: Nr:Datum:Temp:Feuchte:Taupunkt:
Aussen-T/F 76 22-11-2019 06:15:00 3.6 C 98 % 3.31 C
77 22-11-2019 06:20:00 3.5 C 98 % 3.21 C
78 22-11-2019 06:25:00 3.5 C 98 % 3.21 C
79 22-11-2019 06:30:00 3.5 C 98 % 3.21 C
80 22-11-2019 06:35:00 3.5 C 98 % 3.21 C
81 22-11-2019 06:40:00 3.6 C 98 % 3.31 C
82 22-11-2019 06:45:00 3.7 C 98 % 3.41 C
83 22-11-2019 06:50:00 3.7 C 98 % 3.41 C
84 22-11-2019 06:55:00 3.8 C 98 % 3.51 C
85 22-11-2019 07:00:00 3.8 C 98 % 3.51 C
86 22-11-2019 07:05:00 3.8 C 98 % 3.51 C
87 22-11-2019 07:10:00 3.8 C 98 % 3.51 C
88 22-11-2019 07:15:00 3.8 C 98 % 3.51 C
89 22-11-2019 07:20:00 3.9 C 98 % 3.61 C
90 22-11-2019 07:25:00 3.9 C 98 % 3.61 C
91 22-11-2019 07:30:00 4 C 98 % 3.71 C
92 22-11-2019 07:35:00 4.1 C 98 % 3.81 C
93 22-11-2019 07:40:00 4.2 C 98 % 3.91 C
94 22-11-2019 07:45:00 4.2 C 98 % 3.91 C
95 22-11-2019 07:50:00 4.2 C 98 % 3.91 C
96 22-11-2019 07:55:00 4.2 C 98 % 3.91 C
97 22-11-2019 08:00:00 4.3 C 98 % 4.01 C
98 22-11-2019 08:05:00 4.3 C 98 % 4.01 C
99 22-11-2019 08:10:00 4.3 C 98 % 4.01 C
100 22-11-2019 08:15:00 4.4 C 98 % 4.11 C
Sensor: Nr:Datum:Temp:Feuchte:Taupunkt:
Aussen-T/F 101 22-11-2019 08:20:00 4.6 C 98 % 4.31 C
102 22-11-2019 08:25:00 4.6 C 98 % 4.31 C
103 22-11-2019 08:30:00 4.7 C 98 % 4.41 C
104 22-11-2019 08:35:00 4.7 C 98 % 4.41 C
105 22-11-2019 08:40:00 4.7 C 98 % 4.41 C
106 22-11-2019 08:45:00 4.7 C 98 % 4.41 C
107 22-11-2019 08:50:00 4.7 C 98 % 4.41 C
108 22-11-2019 08:55:00 4.7 C 98 % 4.41 C
109 22-11-2019 09:00:00 4.7 C 98 % 4.41 C
110 22-11-2019 09:05:00 4.7 C 98 % 4.41 C
111 22-11-2019 09:10:00 4.8 C 98 % 4.51 C
112 22-11-2019 09:15:00 4.7 C 98 % 4.41 C
113 22-11-2019 09:20:00 4.7 C 98 % 4.41 C
114 22-11-2019 09:25:00 4.7 C 98 % 4.41 C
115 22-11-2019 09:30:00 4.7 C 97 % 4.27 C
116 22-11-2019 09:35:00 4.6 C 97 % 4.17 C
117 22-11-2019 09:40:00 4.6 C 97 % 4.17 C
118 22-11-2019 09:45:00 4.6 C 97 % 4.17 C
119 22-11-2019 09:50:00 4.6 C 97 % 4.17 C
120 22-11-2019 09:55:00 4.5 C 97 % 4.07 C
121 22-11-2019 10:00:00 4.4 C 97 % 3.97 C
122 22-11-2019 10:05:00 4.3 C 97 % 3.87 C
123 22-11-2019 10:10:00 4.3 C 97 % 3.87 C
124 22-11-2019 10:15:00 4.4 C 97 % 3.97 C
125 22-11-2019 10:20:00 4.4 C 97 % 3.97 C
Sensor: Nr:Datum:Temp:Feuchte:Taupunkt:
Aussen-T/F 126 22-11-2019 10:25:00 4.4 C 97 % 3.97 C
127 22-11-2019 10:30:00 4.4 C 97 % 3.97 C
128 22-11-2019 10:35:00 4.5 C 97 % 4.07 C
129 22-11-2019 10:40:00 4.6 C 97 % 4.17 C
130 22-11-2019 10:45:00 4.7 C 97 % 4.27 C
131 22-11-2019 10:50:00 4.8 C 98 % 4.51 C
132 22-11-2019 10:55:00 4.9 C 98 % 4.61 C
133 22-11-2019 11:00:00 4.9 C 98 % 4.61 C
134 22-11-2019 11:05:00 5 C 97 % 4.56 C
135 22-11-2019 11:10:00 5.1 C 98 % 4.81 C
136 22-11-2019 11:15:00 5.1 C 97 % 4.66 C
137 22-11-2019 11:20:00 5.1 C 97 % 4.66 C
138 22-11-2019 11:25:00 5.1 C 97 % 4.66 C
139 22-11-2019 11:30:00 5.1 C 97 % 4.66 C
140 22-11-2019 11:35:00 5.2 C 97 % 4.76 C
141 22-11-2019 11:40:00 5.3 C 97 % 4.86 C
142 22-11-2019 11:45:00 5.4 C 97 % 4.96 C
143 22-11-2019 11:50:00 5.4 C 97 % 4.96 C
144 22-11-2019 11:55:00 5.5 C 97 % 5.06 C
145 22-11-2019 12:00:00 5.6 C 97 % 5.16 C
146 22-11-2019 12:05:00 5.7 C 97 % 5.26 C
147 22-11-2019 12:10:00 5.7 C 97 % 5.26 C
148 22-11-2019 12:15:00 5.7 C 97 % 5.26 C
149 22-11-2019 12:20:00 5.6 C 96 % 5.01 C
150 22-11-2019 12:25:00 5.6 C 96 % 5.01 C
Sensor: Nr:Datum:Temp:Feuchte:Taupunkt:
Aussen-T/F 151 22-11-2019 12:30:00 5.6 C 96 % 5.01 C
152 22-11-2019 12:35:00 5.7 C 96 % 5.11 C
153 22-11-2019 12:40:00 5.7 C 96 % 5.11 C
154 22-11-2019 12:45:00 5.8 C 96 % 5.21 C
155 22-11-2019 12:50:00 5.8 C 96 % 5.21 C
156 22-11-2019 12:55:00 5.9 C 96 % 5.31 C
157 22-11-2019 13:00:00 5.8 C 95 % 5.06 C
158 22-11-2019 13:05:00 5.8 C 95 % 5.06 C
159 22-11-2019 13:10:00 5.9 C 95 % 5.16 C
160 22-11-2019 13:15:00 5.9 C 95 % 5.16 C
161 22-11-2019 13:20:00 5.9 C 94 % 5.01 C
162 22-11-2019 13:25:00 5.9 C 94 % 5.01 C
163 22-11-2019 13:30:00 5.9 C 94 % 5.01 C
164 22-11-2019 13:35:00 5.9 C 94 % 5.01 C
165 22-11-2019 13:40:00 5.9 C 94 % 5.01 C
166 22-11-2019 13:45:00 5.9 C 94 % 5.01 C
167 22-11-2019 13:50:00 5.9 C 93 % 4.86 C
168 22-11-2019 13:55:00 5.9 C 94 % 5.01 C
169 22-11-2019 14:00:00 5.9 C 94 % 5.01 C
170 22-11-2019 14:05:00 5.9 C 94 % 5.01 C
171 22-11-2019 14:10:00 5.9 C 94 % 5.01 C
172 22-11-2019 14:15:00 6 C 93 % 4.96 C
173 22-11-2019 14:20:00 6 C 93 % 4.96 C
174 22-11-2019 14:25:00 6.1 C 93 % 5.06 C
175 22-11-2019 14:30:00 6.1 C 93 % 5.06 C
Sensor: Nr:Datum:Temp:Feuchte:Taupunkt:
Aussen-T/F 176 22-11-2019 14:35:00 6.1 C 93 % 5.06 C
177 22-11-2019 14:40:00 6.2 C 93 % 5.15 C
178 22-11-2019 14:45:00 6.2 C 92 % 5 C
179 22-11-2019 14:50:00 6.2 C 92 % 5 C
180 22-11-2019 14:55:00 6.2 C 92 % 5 C
181 22-11-2019 15:00:00 6.2 C 92 % 5 C
182 22-11-2019 15:05:00 6.2 C 92 % 5 C
183 22-11-2019 15:10:00 6.2 C 92 % 5 C
184 22-11-2019 15:15:00 6.2 C 92 % 5 C
185 22-11-2019 15:20:00 6.2 C 92 % 5 C
186 22-11-2019 15:25:00 6.2 C 92 % 5 C
187 22-11-2019 15:30:00 6.2 C 92 % 5 C
188 22-11-2019 15:35:00 6.2 C 92 % 5 C
189 22-11-2019 15:40:00 6.1 C 92 % 4.9 C
190 22-11-2019 15:45:00 6.1 C 92 % 4.9 C
191 22-11-2019 15:50:00 6.1 C 92 % 4.9 C
192 22-11-2019 15:55:00 6.1 C 92 % 4.9 C
193 22-11-2019 16:00:00 6 C 92 % 4.8 C
194 22-11-2019 16:05:00 6 C 92 % 4.8 C
195 22-11-2019 16:10:00 6 C 92 % 4.8 C
196 22-11-2019 16:15:00 6 C 92 % 4.8 C
197 22-11-2019 16:20:00 5.9 C 92 % 4.7 C
198 22-11-2019 16:25:00 5.9 C 92 % 4.7 C
199 22-11-2019 16:30:00 5.9 C 92 % 4.7 C
200 22-11-2019 16:35:00 5.9 C 92 % 4.7 C
Sensor: Nr:Datum:Temp:Feuchte:Taupunkt:
Aussen-T/F 201 22-11-2019 16:40:00 5.9 C 92 % 4.7 C
202 22-11-2019 16:45:00 5.8 C 93 % 4.76 C
203 22-11-2019 16:50:00 5.8 C 93 % 4.76 C
204 22-11-2019 16:55:00 5.8 C 93 % 4.76 C
205 22-11-2019 17:00:00 5.8 C 93 % 4.76 C
206 22-11-2019 17:05:00 5.8 C 93 % 4.76 C
207 22-11-2019 17:10:00 5.8 C 93 % 4.76 C
208 22-11-2019 17:15:00 5.8 C 93 % 4.76 C
209 22-11-2019 17:20:00 5.7 C 93 % 4.66 C
210 22-11-2019 17:25:00 5.7 C 94 % 4.81 C
211 22-11-2019 17:30:00 5.7 C 94 % 4.81 C
212 22-11-2019 17:35:00 5.7 C 94 % 4.81 C
213 22-11-2019 17:40:00 5.7 C 94 % 4.81 C
214 22-11-2019 17:45:00 5.7 C 93 % 4.66 C
215 22-11-2019 17:50:00 5.7 C 93 % 4.66 C
216 22-11-2019 17:55:00 5.7 C 93 % 4.66 C
217 22-11-2019 18:00:00 5.7 C 93 % 4.66 C
218 22-11-2019 18:05:00 5.7 C 94 % 4.81 C
219 22-11-2019 18:10:00 5.7 C 94 % 4.81 C
220 22-11-2019 18:15:00 5.7 C 94 % 4.81 C
221 22-11-2019 18:20:00 5.6 C 94 % 4.71 C
222 22-11-2019 18:25:00 5.6 C 94 % 4.71 C
223 22-11-2019 18:30:00 5.6 C 94 % 4.71 C
224 22-11-2019 18:35:00 5.6 C 94 % 4.71 C
225 22-11-2019 18:40:00 5.6 C 94 % 4.71 C
Sensor: Nr:Datum:Temp:Feuchte:Taupunkt:
Aussen-T/F 226 22-11-2019 18:45:00 5.6 C 93 % 4.56 C
227 22-11-2019 18:50:00 5.6 C 93 % 4.56 C
228 22-11-2019 18:55:00 5.6 C 94 % 4.71 C
229 22-11-2019 19:00:00 5.6 C 94 % 4.71 C
230 22-11-2019 19:05:00 5.6 C 93 % 4.56 C
231 22-11-2019 19:10:00 5.6 C 94 % 4.71 C
232 22-11-2019 19:15:00 5.5 C 94 % 4.61 C
233 22-11-2019 19:20:00 5.5 C 93 % 4.46 C
234 22-11-2019 19:25:00 5.5 C 93 % 4.46 C
235 22-11-2019 19:30:00 5.5 C 93 % 4.46 C
236 22-11-2019 19:35:00 5.5 C 93 % 4.46 C
237 22-11-2019 19:40:00 5.4 C 93 % 4.36 C
238 22-11-2019 19:45:00 5.4 C 93 % 4.36 C
239 22-11-2019 19:50:00 5.4 C 93 % 4.36 C
240 22-11-2019 19:55:00 5.4 C 93 % 4.36 C
241 22-11-2019 20:00:00 5.4 C 93 % 4.36 C
242 22-11-2019 20:05:00 5.3 C 93 % 4.26 C
243 22-11-2019 20:10:00 5.3 C 93 % 4.26 C
244 22-11-2019 20:15:00 5.3 C 93 % 4.26 C
245 22-11-2019 20:20:00 5.3 C 93 % 4.26 C
246 22-11-2019 20:25:00 5.3 C 93 % 4.26 C
247 22-11-2019 20:30:00 5.3 C 93 % 4.26 C
248 22-11-2019 20:35:00 5.2 C 93 % 4.16 C
249 22-11-2019 20:40:00 5.3 C 92 % 4.11 C
250 22-11-2019 20:45:00 5.2 C 93 % 4.16 C
Sensor: Nr:Datum:Temp:Feuchte:Taupunkt:
Aussen-T/F 251 22-11-2019 20:50:00 5.2 C 93 % 4.16 C
252 22-11-2019 20:55:00 5.2 C 93 % 4.16 C
253 22-11-2019 21:00:00 5.2 C 93 % 4.16 C
254 22-11-2019 21:05:00 5.1 C 93 % 4.06 C
255 22-11-2019 21:10:00 5.1 C 93 % 4.06 C
256 22-11-2019 21:15:00 5.1 C 93 % 4.06 C
257 22-11-2019 21:20:00 5.1 C 93 % 4.06 C
258 22-11-2019 21:25:00 5.1 C 93 % 4.06 C
259 22-11-2019 21:30:00 5.1 C 93 % 4.06 C
260 22-11-2019 21:35:00 5.1 C 93 % 4.06 C
261 22-11-2019 21:40:00 5.1 C 93 % 4.06 C
262 22-11-2019 21:45:00 5 C 93 % 3.96 C
263 22-11-2019 21:50:00 5 C 93 % 3.96 C
264 22-11-2019 21:55:00 5 C 93 % 3.96 C
265 22-11-2019 22:00:00 5 C 93 % 3.96 C
266 22-11-2019 22:05:00 4.9 C 93 % 3.87 C
267 22-11-2019 22:10:00 4.9 C 93 % 3.87 C
268 22-11-2019 22:15:00 4.9 C 93 % 3.87 C
269 22-11-2019 22:20:00 4.9 C 93 % 3.87 C
270 22-11-2019 22:25:00 4.9 C 93 % 3.87 C
271 22-11-2019 22:30:00 4.9 C 93 % 3.87 C
272 22-11-2019 22:35:00 4.9 C 93 % 3.87 C
273 22-11-2019 22:40:00 4.9 C 92 % 3.71 C
274 22-11-2019 22:45:00 4.8 C 92 % 3.61 C
275 22-11-2019 22:50:00 4.8 C 92 % 3.61 C
Sensor: Nr:Datum:Temp:Feuchte:Taupunkt:
Aussen-T/F 276 22-11-2019 22:55:00 4.8 C 92 % 3.61 C
277 22-11-2019 23:00:00 4.8 C 92 % 3.61 C
278 22-11-2019 23:05:00 4.8 C 92 % 3.61 C
279 22-11-2019 23:10:00 4.8 C 92 % 3.61 C
280 22-11-2019 23:15:00 4.7 C 92 % 3.51 C
281 22-11-2019 23:20:00 4.7 C 92 % 3.51 C
282 22-11-2019 23:25:00 4.7 C 92 % 3.51 C
283 22-11-2019 23:30:00 4.7 C 93 % 3.67 C
284 22-11-2019 23:35:00 4.7 C 92 % 3.51 C
285 22-11-2019 23:40:00 4.7 C 92 % 3.51 C
286 22-11-2019 23:45:00 4.7 C 93 % 3.67 C
287 22-11-2019 23:50:00 4.7 C 93 % 3.67 C
288 22-11-2019 23:55:00 4.7 C 93 % 3.67 C

Legende:
   Min
   Max


Maximal/Minimal-Werte vom 22.11.2019 - 22.11.2019

Sensor Min Max Avg
Temp
(Aussen-T/F)
1.3 °C
22-11-2019  02:15:00
6.2 °C
22-11-2019  14:40:00
4.39 °C
Feuchte
(Aussen-T/F)
92 %
22-11-2019  14:45:00
98 %
22-11-2019  05:20:00
95.31 %
Taupunkt
(Aussen-T/F)
0.73 C
22-11-2019  02:15:00
5.31 C
22-11-2019  12:55:00
3.69 C

Die Daten stammen von einer Davis Vantage Pro 2 Wetter-Station und werden unter Linux mit der Software wview2wettercgi und aufbereitet. Alle Angaben erfolgen ohne Gewähr für ihre Vollständigkeit oder Richtigkeit.
Kontakt: Rainer Krienke krienke@uni-koblenz.de . Meine Webseiten an der Uni Koblenz oder privat.
Version: $Revision: 0.78 $